createdAt,value
2023-04-20T00:01:36.606Z,5.51
2023-04-20T00:04:03.044Z,5.45
2023-04-20T00:06:29.492Z,5.48
2023-04-20T00:08:56.005Z,5.47
2023-04-20T00:11:22.303Z,5.49
2023-04-20T00:13:48.608Z,5.47
2023-04-20T00:16:15.031Z,5.45
2023-04-20T00:18:41.383Z,5.46
2023-04-20T00:21:07.684Z,5.43
2023-04-20T00:23:34.010Z,5.44
2023-04-20T00:26:00.343Z,5.45
2023-04-20T00:28:26.692Z,5.39
2023-04-20T00:30:52.982Z,5.40
2023-04-20T00:33:19.320Z,5.44
2023-04-20T00:35:46.208Z,5.41
2023-04-20T00:38:12.551Z,5.40
2023-04-20T00:40:38.874Z,5.44
2023-04-20T00:43:12.371Z,5.42
2023-04-20T00:45:38.764Z,5.41
2023-04-20T00:48:06.173Z,5.47
2023-04-20T00:50:33.663Z,5.45
2023-04-20T00:53:02.217Z,5.40
2023-04-20T00:55:29.832Z,5.42
2023-04-20T00:57:56.353Z,5.42
2023-04-20T01:00:22.803Z,5.45
2023-04-20T01:02:49.366Z,5.45
2023-04-20T01:05:16.059Z,5.40
2023-04-20T01:07:42.372Z,5.41
2023-04-20T01:10:09.258Z,5.40
2023-04-20T01:12:36.013Z,5.47
2023-04-20T01:15:06.721Z,5.49
2023-04-20T01:17:33.856Z,5.56
2023-04-20T01:20:00.615Z,5.47
2023-04-20T01:22:27.153Z,5.46
2023-04-20T01:24:53.494Z,5.53
2023-04-20T01:27:19.926Z,5.50
2023-04-20T01:29:46.450Z,5.51
2023-04-20T01:32:13.034Z,5.50
2023-04-20T01:34:39.379Z,5.52
2023-04-20T01:37:05.779Z,5.44
2023-04-20T01:39:32.100Z,5.40
2023-04-20T01:41:58.502Z,5.44
2023-04-20T01:44:24.776Z,5.43
2023-04-20T01:46:51.160Z,5.52
2023-04-20T01:49:17.648Z,5.54
2023-04-20T01:51:44.039Z,5.48
2023-04-20T01:54:10.358Z,5.49
2023-04-20T01:56:36.716Z,5.59
2023-04-20T01:59:03.000Z,5.56
2023-04-20T02:01:29.448Z,5.52
2023-04-20T02:03:55.923Z,5.50
2023-04-20T02:06:22.452Z,5.51
2023-04-20T02:08:48.805Z,5.51
2023-04-20T02:11:15.328Z,5.57
2023-04-20T02:13:41.682Z,5.59
2023-04-20T02:16:08.099Z,5.58
2023-04-20T02:18:34.393Z,5.58
2023-04-20T02:21:01.562Z,5.59
2023-04-20T02:23:27.861Z,5.68
2023-04-20T02:25:54.311Z,5.60
2023-04-20T02:28:20.647Z,5.66
2023-04-20T02:30:47.005Z,5.76
2023-04-20T02:33:13.304Z,5.70
2023-04-20T02:35:39.653Z,5.73
2023-04-20T02:38:05.985Z,5.67
2023-04-20T02:40:32.291Z,5.73
2023-04-20T02:42:58.629Z,5.64
2023-04-20T02:45:24.955Z,5.74
2023-04-20T02:47:51.353Z,5.71
2023-04-20T02:50:17.689Z,5.67
2023-04-20T02:52:44.095Z,5.64
2023-04-20T02:55:10.449Z,5.74
2023-04-20T02:57:36.770Z,5.71
2023-04-20T03:00:03.371Z,5.75
2023-04-20T03:02:29.909Z,5.75
2023-04-20T03:04:56.437Z,5.66
2023-04-20T03:07:22.731Z,5.68
2023-04-20T03:09:49.326Z,5.70
2023-04-20T03:12:15.630Z,5.67
2023-04-20T03:14:41.953Z,5.72
2023-04-20T03:17:08.282Z,5.67
2023-04-20T03:19:34.606Z,5.66
2023-04-20T03:22:00.950Z,5.67
2023-04-20T03:24:27.276Z,5.73
2023-04-20T03:26:53.653Z,5.65
2023-04-20T03:29:20.198Z,5.70
2023-04-20T03:31:46.697Z,5.70
2023-04-20T03:34:13.099Z,5.74
2023-04-20T03:36:39.405Z,5.66
2023-04-20T03:39:05.769Z,5.67
2023-04-20T03:41:32.128Z,5.63
2023-04-20T03:43:58.442Z,5.59
2023-04-20T03:46:24.922Z,5.62
2023-04-20T03:48:51.364Z,5.60
2023-04-20T03:51:17.726Z,5.58
2023-04-20T03:53:44.057Z,5.53
2023-04-20T03:56:10.418Z,5.55
2023-04-20T03:58:36.733Z,5.52
2023-04-20T04:01:05.441Z,5.63
2023-04-20T04:03:31.832Z,5.57
2023-04-20T04:05:58.379Z,5.66
2023-04-20T04:08:24.666Z,5.66
2023-04-20T04:10:51.035Z,5.66
2023-04-20T04:13:17.636Z,5.65
2023-04-20T04:15:44.003Z,5.64
2023-04-20T04:18:10.351Z,5.65
2023-04-20T04:20:36.633Z,5.67
2023-04-20T04:23:03.012Z,5.61
2023-04-20T04:25:29.328Z,5.69
2023-04-20T04:27:55.687Z,5.70
2023-04-20T04:30:21.988Z,5.74
2023-04-20T04:32:48.316Z,5.69
2023-04-20T04:35:14.624Z,5.74
2023-04-20T04:37:40.937Z,5.71
2023-04-20T04:40:08.074Z,5.71
2023-04-20T04:42:35.596Z,5.72
2023-04-20T04:45:02.988Z,5.75
2023-04-20T04:47:29.352Z,5.73
2023-04-20T04:49:55.864Z,5.80
2023-04-20T04:52:22.861Z,5.79
2023-04-20T04:54:49.172Z,5.80
2023-04-20T04:57:15.461Z,5.81
2023-04-20T04:59:41.757Z,5.83
2023-04-20T05:02:08.187Z,5.91
2023-04-20T05:04:34.679Z,5.85
2023-04-20T05:07:01.407Z,5.93
2023-04-20T05:09:27.695Z,5.93
2023-04-20T05:11:53.985Z,5.93
2023-04-20T05:14:20.260Z,5.90
2023-04-20T05:16:46.634Z,5.93
2023-04-20T05:19:13.088Z,5.94
2023-04-20T05:21:39.429Z,5.96
2023-04-20T05:24:05.940Z,6.00
2023-04-20T05:26:32.238Z,6.00
2023-04-20T05:28:58.503Z,6.05
2023-04-20T05:31:24.844Z,6.07
2023-04-20T05:33:51.139Z,6.11
2023-04-20T05:36:17.492Z,6.21
2023-04-20T05:38:43.793Z,6.18
2023-04-20T05:41:10.092Z,6.16
2023-04-20T05:43:36.382Z,6.18
2023-04-20T05:46:02.794Z,6.20
2023-04-20T05:48:30.018Z,6.23
2023-04-20T05:50:57.104Z,6.25
2023-04-20T05:53:23.678Z,6.29
2023-04-20T05:55:50.162Z,6.36
2023-04-20T05:58:16.898Z,6.40
2023-04-20T06:00:43.226Z,6.40
2023-04-20T06:03:09.932Z,6.42
2023-04-20T06:05:36.540Z,6.44
2023-04-20T06:08:03.014Z,6.44
2023-04-20T06:10:29.531Z,6.51
2023-04-20T06:12:55.886Z,6.56
2023-04-20T06:15:22.241Z,6.49
2023-04-20T06:17:48.567Z,6.43
2023-04-20T06:20:14.947Z,6.46
2023-04-20T06:22:44.468Z,6.49
2023-04-20T06:25:11.200Z,6.52
2023-04-20T06:27:37.558Z,6.59
2023-04-20T06:30:04.272Z,6.56
2023-04-20T06:32:30.608Z,6.60
2023-04-20T06:34:56.943Z,6.70
2023-04-20T06:37:23.300Z,6.65
2023-04-20T06:39:56.314Z,6.67
2023-04-20T06:42:22.852Z,6.64
2023-04-20T06:44:49.184Z,6.70
2023-04-20T06:47:15.552Z,6.73
2023-04-20T06:49:41.904Z,6.80
2023-04-20T06:52:08.271Z,6.86
2023-04-20T06:54:34.647Z,6.97
2023-04-20T06:57:00.929Z,6.99
2023-04-20T06:59:27.449Z,7.13
2023-04-20T07:01:53.823Z,7.24
2023-04-20T07:04:20.165Z,7.31
2023-04-20T07:06:46.475Z,7.31
2023-04-20T07:09:12.813Z,7.28
2023-04-20T07:11:39.099Z,7.40
2023-04-20T07:14:05.391Z,7.40
2023-04-20T07:16:31.746Z,7.43
2023-04-20T07:18:58.093Z,7.39
2023-04-20T07:21:24.416Z,7.38
2023-04-20T07:23:50.713Z,7.38
2023-04-20T07:26:17.254Z,7.46
2023-04-20T07:28:43.532Z,7.46
2023-04-20T07:31:09.851Z,7.56
2023-04-20T07:33:36.186Z,7.56
2023-04-20T07:36:02.515Z,7.63
2023-04-20T07:38:28.861Z,7.69
2023-04-20T07:40:55.149Z,7.64
2023-04-20T07:43:21.420Z,7.73
2023-04-20T07:45:47.788Z,7.76
2023-04-20T07:48:14.141Z,7.68
2023-04-20T07:50:40.485Z,7.68
2023-04-20T07:53:06.832Z,7.73
2023-04-20T07:55:33.132Z,7.90
2023-04-20T07:57:59.434Z,7.94
2023-04-20T08:00:26.256Z,7.96
2023-04-20T08:02:52.957Z,8.01
2023-04-20T08:05:19.495Z,8.06
2023-04-20T08:07:45.913Z,8.06
2023-04-20T08:10:13.217Z,8.20
2023-04-20T08:12:39.489Z,8.38
2023-04-20T08:15:06.856Z,8.41
2023-04-20T08:17:34.144Z,8.31
2023-04-20T08:20:01.025Z,8.32
2023-04-20T08:22:27.364Z,8.24
2023-04-20T08:24:53.700Z,8.24
2023-04-20T08:27:20.031Z,8.25
2023-04-20T08:29:46.380Z,8.33
2023-04-20T08:32:12.757Z,8.22
2023-04-20T08:34:39.714Z,8.14
2023-04-20T08:37:06.048Z,7.98
2023-04-20T08:39:32.619Z,8.07
2023-04-20T08:41:58.979Z,7.99
2023-04-20T08:44:25.275Z,7.96
2023-04-20T08:46:51.727Z,7.99
2023-04-20T08:49:19.441Z,7.88
2023-04-20T08:51:47.032Z,7.85
2023-04-20T08:54:13.864Z,7.72
2023-04-20T08:56:46.325Z,7.75
2023-04-20T08:59:13.198Z,7.79
2023-04-20T09:01:40.659Z,7.79
2023-04-20T09:04:18.979Z,7.68
2023-04-20T09:06:46.894Z,7.78
2023-04-20T09:09:13.244Z,7.78
2023-04-20T09:11:39.583Z,7.75
2023-04-20T09:14:08.252Z,7.81
2023-04-20T09:16:34.649Z,7.79
2023-04-20T09:19:01.023Z,7.85
2023-04-20T09:21:27.996Z,7.75
2023-04-20T09:24:01.855Z,7.86
2023-04-20T09:26:31.900Z,8.02
2023-04-20T09:28:58.246Z,8.05
2023-04-20T09:31:24.629Z,8.07
2023-04-20T09:34:02.205Z,8.34
2023-04-20T09:36:44.916Z,8.38
2023-04-20T09:39:19.201Z,8.32
2023-04-20T09:41:46.354Z,8.41
2023-04-20T09:44:13.480Z,8.65
2023-04-20T09:46:41.318Z,8.69
2023-04-20T09:49:09.676Z,8.56
2023-04-20T09:51:38.590Z,8.50
2023-04-20T09:54:06.506Z,8.55
2023-04-20T09:56:34.614Z,8.65
2023-04-20T09:59:02.098Z,8.61
2023-04-20T10:01:32.996Z,8.76
2023-04-20T10:04:00.718Z,8.90
2023-04-20T10:06:33.041Z,8.94
2023-04-20T10:09:03.434Z,9.08
2023-04-20T10:11:44.539Z,9.54
2023-04-20T10:14:23.555Z,9.58
2023-04-20T10:17:00.686Z,10.10
2023-04-20T10:19:45.983Z,10.49
2023-04-20T10:22:25.085Z,10.73
2023-04-20T10:24:51.409Z,10.99
2023-04-20T10:27:19.296Z,10.94
2023-04-20T10:29:45.859Z,11.00
2023-04-20T10:32:22.763Z,11.10
2023-04-20T10:34:49.186Z,11.53
2023-04-20T10:37:15.549Z,11.81
2023-04-20T10:39:46.247Z,11.71
2023-04-20T10:42:14.229Z,11.64
2023-04-20T10:44:52.819Z,11.53
2023-04-20T10:47:30.364Z,11.82
2023-04-20T10:50:16.278Z,11.87
2023-04-20T10:52:46.266Z,11.90
2023-04-20T10:55:24.190Z,11.89
2023-04-20T10:57:50.817Z,11.92
2023-04-20T11:00:23.177Z,12.01
2023-04-20T11:02:51.542Z,12.13
2023-04-20T11:05:19.898Z,12.55
2023-04-20T11:07:52.072Z,12.70
2023-04-20T11:10:18.699Z,12.84
2023-04-20T11:12:45.001Z,13.19
2023-04-20T11:15:11.420Z,13.48
2023-04-20T11:17:38.389Z,13.72
2023-04-20T11:20:19.092Z,14.16
2023-04-20T11:22:56.647Z,14.08
2023-04-20T11:25:22.964Z,14.02
2023-04-20T11:27:49.290Z,14.23
2023-04-20T11:30:15.664Z,13.79
2023-04-20T11:32:42.306Z,13.82
2023-04-20T11:35:09.864Z,13.67
2023-04-20T11:37:49.960Z,13.37
2023-04-20T11:40:17.032Z,13.53
2023-04-20T11:42:43.812Z,13.97
2023-04-20T11:45:10.669Z,14.34
2023-04-20T11:47:37.213Z,14.41
2023-04-20T11:50:04.389Z,13.77
2023-04-20T11:52:30.702Z,13.58
2023-04-20T11:54:57.013Z,13.28
2023-04-20T11:57:23.343Z,13.63
2023-04-20T11:59:49.720Z,14.05
2023-04-20T12:02:16.364Z,14.53
2023-04-20T12:04:42.858Z,14.90
2023-04-20T12:07:09.441Z,15.04
2023-04-20T12:09:35.766Z,15.21
2023-04-20T12:12:03.268Z,15.81
2023-04-20T12:14:29.562Z,16.22
2023-04-20T12:16:58.726Z,15.88
2023-04-20T12:19:25.198Z,15.04
2023-04-20T12:21:51.485Z,14.35
2023-04-20T12:24:17.876Z,14.85
2023-04-20T12:26:44.189Z,15.39
2023-04-20T12:29:10.523Z,15.59
2023-04-20T12:31:36.955Z,15.14
2023-04-20T12:34:03.833Z,15.15
2023-04-20T12:36:30.345Z,15.12
2023-04-20T12:38:56.660Z,14.84
2023-04-20T12:41:22.999Z,14.92
2023-04-20T12:43:52.465Z,14.83
2023-04-20T12:46:18.930Z,15.08
2023-04-20T12:48:45.309Z,14.85
2023-04-20T12:51:12.611Z,14.78
2023-04-20T12:53:38.953Z,15.25
2023-04-20T12:56:05.675Z,15.20
2023-04-20T12:58:32.084Z,15.32
2023-04-20T13:00:58.628Z,14.99
2023-04-20T13:03:25.144Z,15.79
2023-04-20T13:05:51.698Z,15.67
2023-04-20T13:08:18.451Z,15.29
2023-04-20T13:10:44.892Z,14.92
2023-04-20T13:13:11.443Z,15.25
2023-04-20T13:15:39.123Z,15.06
2023-04-20T13:18:06.315Z,15.09
2023-04-20T13:20:32.790Z,15.15
2023-04-20T13:23:00.712Z,15.56
2023-04-20T13:25:28.558Z,16.20
2023-04-20T13:27:55.241Z,16.43
2023-04-20T13:30:24.298Z,16.10
2023-04-20T13:32:51.100Z,15.99
2023-04-20T13:35:18.574Z,15.87
2023-04-20T13:37:45.313Z,16.04
2023-04-20T13:40:12.402Z,16.20
2023-04-20T13:42:38.712Z,16.08
2023-04-20T13:45:05.944Z,15.86
2023-04-20T13:47:32.429Z,15.95
2023-04-20T13:49:58.950Z,15.94
2023-04-20T13:52:25.294Z,16.10
2023-04-20T13:54:51.600Z,16.15
2023-04-20T13:57:17.962Z,16.53
2023-04-20T13:59:44.319Z,16.76
2023-04-20T14:02:10.715Z,16.71
2023-04-20T14:04:37.081Z,16.59
2023-04-20T14:07:03.450Z,16.54
2023-04-20T14:09:31.277Z,16.59
2023-04-20T14:11:57.718Z,16.54
2023-04-20T14:14:24.683Z,16.79
2023-04-20T14:16:51.106Z,16.77
2023-04-20T14:19:17.475Z,16.99
2023-04-20T14:21:43.763Z,17.14
2023-04-20T14:24:10.766Z,17.12
2023-04-20T14:26:37.442Z,17.16
2023-04-20T14:29:04.091Z,17.07
2023-04-20T14:31:31.409Z,16.79
2023-04-20T14:33:57.800Z,16.64
2023-04-20T14:36:24.162Z,16.52
2023-04-20T14:38:50.463Z,16.29
2023-04-20T14:41:16.928Z,16.37
2023-04-20T14:43:43.299Z,16.72
2023-04-20T14:46:09.682Z,16.88
2023-04-20T14:48:36.073Z,17.06
2023-04-20T14:51:02.397Z,17.06
2023-04-20T14:53:28.673Z,16.92
2023-04-20T14:55:55.116Z,16.86
2023-04-20T14:58:21.513Z,16.59
2023-04-20T15:01:27.714Z,16.15
2023-04-20T15:03:52.057Z,16.00
2023-04-20T15:06:18.665Z,15.89
2023-04-20T15:08:44.998Z,16.02
2023-04-20T15:11:18.756Z,16.09
2023-04-20T15:13:46.040Z,16.15
2023-04-20T15:16:12.425Z,16.21
2023-04-20T15:18:41.831Z,16.12
2023-04-20T15:21:09.688Z,16.17
2023-04-20T15:23:36.795Z,16.18
2023-04-20T15:26:03.124Z,16.25
2023-04-20T15:28:29.636Z,16.23
2023-04-20T15:30:56.041Z,16.20
2023-04-20T15:33:22.500Z,16.08
2023-04-20T15:35:55.036Z,16.00
2023-04-20T15:38:27.650Z,15.89
2023-04-20T15:40:56.012Z,15.78
2023-04-20T15:43:36.775Z,15.62
2023-04-20T15:46:19.849Z,15.71
2023-04-20T15:48:46.394Z,15.78
2023-04-20T15:51:19.333Z,15.79
2023-04-20T15:56:38.959Z,15.68
2023-04-20T15:59:05.283Z,15.69
2023-04-20T16:01:31.669Z,15.71
2023-04-20T16:03:58.171Z,15.64
2023-04-20T16:06:24.979Z,15.70
2023-04-20T16:08:51.512Z,15.79
2023-04-20T16:11:17.881Z,15.58
2023-04-20T16:13:44.272Z,15.55
2023-04-20T16:16:10.713Z,15.48
2023-04-20T16:18:37.067Z,15.50
2023-04-20T16:21:03.548Z,15.52
2023-04-20T16:23:30.008Z,15.55
2023-04-20T16:25:56.325Z,15.64
2023-04-20T16:28:22.623Z,15.65
2023-04-20T16:30:49.082Z,15.74
2023-04-20T16:33:15.935Z,15.78
2023-04-20T16:35:42.266Z,15.72
2023-04-20T16:38:10.546Z,15.70
2023-04-20T16:40:37.110Z,15.59
2023-04-20T16:43:03.769Z,15.56
2023-04-20T16:45:30.103Z,15.47
2023-04-20T16:47:59.623Z,15.37
2023-04-20T16:50:26.180Z,15.32
2023-04-20T16:52:52.661Z,15.26
2023-04-20T16:55:19.206Z,15.21
2023-04-20T16:57:45.508Z,15.06
2023-04-20T17:00:12.930Z,14.93
2023-04-20T17:02:39.512Z,14.86
2023-04-20T17:05:06.806Z,14.82
2023-04-20T17:07:33.262Z,14.72
2023-04-20T17:10:00.003Z,14.75
2023-04-20T17:12:26.380Z,14.64
2023-04-20T17:14:52.715Z,14.63
2023-04-20T17:17:19.011Z,14.61
2023-04-20T17:19:45.320Z,14.58
2023-04-20T17:22:11.635Z,14.52
2023-04-20T17:24:37.995Z,14.52
2023-04-20T17:27:04.333Z,14.45
2023-04-20T17:29:30.736Z,14.43
2023-04-20T17:31:57.068Z,14.37
2023-04-20T17:34:23.390Z,14.33
2023-04-20T17:36:49.987Z,14.25
2023-04-20T17:41:53.751Z,14.17
2023-04-20T17:44:20.747Z,14.14
2023-04-20T17:46:48.944Z,14.05
2023-04-20T17:49:15.274Z,14.03
2023-04-20T17:51:41.587Z,13.97
2023-04-20T17:54:07.947Z,13.90
2023-04-20T17:56:34.541Z,13.83
2023-04-20T17:59:01.154Z,13.72
2023-04-20T18:01:27.609Z,13.68
2023-04-20T18:03:54.268Z,13.60
2023-04-20T18:06:20.763Z,13.53
2023-04-20T18:08:47.144Z,13.43
2023-04-20T18:11:13.480Z,13.40
2023-04-20T18:13:39.770Z,13.33
2023-04-20T18:16:06.216Z,13.33
2023-04-20T18:18:35.415Z,13.22
2023-04-20T18:21:01.774Z,13.21
2023-04-20T18:23:28.064Z,13.14
2023-04-20T18:25:54.379Z,13.09
2023-04-20T18:28:20.685Z,13.03
2023-04-20T18:30:50.163Z,12.92
2023-04-20T18:35:56.542Z,12.84
2023-04-20T18:38:22.838Z,12.79
2023-04-20T18:40:49.202Z,12.68
2023-04-20T18:43:15.489Z,12.66
2023-04-20T18:45:41.815Z,12.61
2023-04-20T18:48:08.176Z,12.56
2023-04-20T18:50:34.540Z,12.48
2023-04-20T18:53:00.826Z,12.35
2023-04-20T18:55:27.119Z,12.30
2023-04-20T18:57:53.498Z,12.27
2023-04-20T19:00:19.817Z,12.25
2023-04-20T19:02:46.248Z,12.21
2023-04-20T19:05:12.640Z,12.17
2023-04-20T19:07:39.076Z,12.09
2023-04-20T19:10:06.124Z,12.02
2023-04-20T19:12:32.319Z,11.98
2023-04-20T19:15:01.718Z,11.94
2023-04-20T19:17:28.048Z,11.92
2023-04-20T19:19:57.172Z,11.87
2023-04-20T19:22:23.567Z,11.87
2023-04-20T19:24:50.590Z,11.79
2023-04-20T19:27:20.220Z,11.76
2023-04-20T19:32:24.222Z,11.64
2023-04-20T19:34:50.731Z,11.61
2023-04-20T19:37:17.109Z,11.53
2023-04-20T19:39:43.791Z,11.51
2023-04-20T19:42:10.201Z,11.45
2023-04-20T19:44:36.505Z,11.43
2023-04-20T19:47:03.544Z,11.41
2023-04-20T19:49:29.837Z,11.34
2023-04-20T19:51:56.201Z,11.31
2023-04-20T19:54:23.065Z,11.29
2023-04-20T19:56:49.421Z,11.19
2023-04-20T19:59:15.916Z,11.13
2023-04-20T20:01:42.409Z,11.06
2023-04-20T20:04:08.954Z,11.10
2023-04-20T20:06:35.749Z,11.01
2023-04-20T20:09:02.201Z,10.91
2023-04-20T20:11:28.513Z,10.92
2023-04-20T20:13:54.796Z,10.86
2023-04-20T20:16:21.164Z,10.81
2023-04-20T20:18:48.291Z,10.75
2023-04-20T20:21:14.566Z,10.74
2023-04-20T20:23:40.862Z,10.70
2023-04-20T20:26:07.232Z,10.68
2023-04-20T20:28:33.655Z,10.68
2023-04-20T20:31:00.050Z,10.62
2023-04-20T20:33:26.403Z,10.55
2023-04-20T20:35:52.723Z,10.49
2023-04-20T20:38:19.102Z,10.47
2023-04-20T20:40:45.412Z,10.44
2023-04-20T20:43:11.691Z,10.43
2023-04-20T20:45:38.090Z,10.44
2023-04-20T20:48:04.701Z,10.45
2023-04-20T20:50:31.127Z,10.49
2023-04-20T20:52:57.424Z,10.39
2023-04-20T20:55:23.741Z,10.37
2023-04-20T20:57:50.173Z,10.38
2023-04-20T21:02:54.200Z,10.41
2023-04-20T21:05:20.725Z,10.38
2023-04-20T21:10:12.344Z,10.38
2023-04-20T21:12:38.652Z,10.40
2023-04-20T21:15:05.620Z,10.46
2023-04-20T21:17:32.034Z,10.53
2023-04-20T21:19:58.385Z,10.47
2023-04-20T21:22:24.819Z,10.46
2023-04-20T21:24:51.160Z,10.47
2023-04-20T21:27:17.545Z,10.41
2023-04-20T21:29:43.888Z,10.46
2023-04-20T21:32:10.277Z,10.41
2023-04-20T21:34:36.726Z,10.38
2023-04-20T21:37:03.043Z,10.37
2023-04-20T21:39:30.631Z,10.30
2023-04-20T21:41:56.950Z,10.32
2023-04-20T21:44:23.384Z,10.36
2023-04-20T21:46:49.812Z,10.40
2023-04-20T21:51:42.389Z,10.39
2023-04-20T21:54:08.737Z,10.37
2023-04-20T21:56:35.092Z,10.43
2023-04-20T21:59:01.481Z,10.44
2023-04-20T22:01:27.830Z,10.44
2023-04-20T22:03:54.323Z,10.46
2023-04-20T22:06:20.832Z,10.42
2023-04-20T22:08:47.255Z,10.41
2023-04-20T22:11:13.663Z,10.33
2023-04-20T22:13:40.032Z,10.34
2023-04-20T22:16:06.820Z,10.32
2023-04-20T22:18:33.182Z,10.41
2023-04-20T22:20:59.518Z,10.35
2023-04-20T22:23:25.872Z,10.31
2023-04-20T22:25:52.234Z,10.35
2023-04-20T22:28:19.240Z,10.28
2023-04-20T22:30:45.559Z,10.33
2023-04-20T22:33:11.874Z,10.23
2023-04-20T22:35:58.477Z,10.17
2023-04-20T22:38:24.935Z,10.11
2023-04-20T22:40:51.292Z,10.11
2023-04-20T22:43:17.629Z,10.12
2023-04-20T22:45:43.934Z,10.17
2023-04-20T22:48:10.271Z,10.09
2023-04-20T22:50:36.573Z,10.09
2023-04-20T22:53:02.986Z,10.06
2023-04-20T22:55:29.278Z,10.07
2023-04-20T22:57:55.599Z,10.08
2023-04-20T23:00:21.941Z,10.06
2023-04-20T23:02:51.368Z,10.04
2023-04-20T23:07:43.000Z,10.05
2023-04-20T23:10:09.863Z,10.03
2023-04-20T23:12:36.234Z,10.05
2023-04-20T23:15:02.651Z,10.09
2023-04-20T23:17:29.897Z,9.99
2023-04-20T23:19:56.258Z,9.96
2023-04-20T23:22:22.569Z,9.89
2023-04-20T23:24:48.949Z,9.85
2023-04-20T23:27:15.290Z,9.84
2023-04-20T23:29:41.583Z,9.79
2023-04-20T23:32:07.984Z,9.78
2023-04-20T23:34:34.491Z,9.67
2023-04-20T23:37:00.795Z,9.66
2023-04-20T23:39:27.130Z,9.57
2023-04-20T23:41:53.483Z,9.54
2023-04-20T23:44:19.855Z,9.49
2023-04-20T23:46:46.160Z,9.47
2023-04-20T23:49:12.531Z,9.47
2023-04-20T23:51:38.886Z,9.41
2023-04-20T23:54:05.236Z,9.41
2023-04-20T23:56:31.594Z,9.34
2023-04-20T23:58:59.065Z,9.32
